sensor_id;sensor_type;location;lat;lon;timestamp;pressure;altitude;pressure_sealevel;temperature;humidity
69247;BME280;56358;56.328;43.992;2023-03-04T00:01:29;99026.97;;;-1.69;78.63
69247;BME280;56358;56.328;43.992;2023-03-04T00:03:30;99017.47;;;-1.71;78.25
69247;BME280;56358;56.328;43.992;2023-03-04T00:05:31;99017.59;;;-1.74;78.12
69247;BME280;56358;56.328;43.992;2023-03-04T00:07:31;99029.72;;;-1.54;78.29
69247;BME280;56358;56.328;43.992;2023-03-04T00:09:32;99025.25;;;-1.52;78.16
69247;BME280;56358;56.328;43.992;2023-03-04T00:11:33;99033.84;;;-1.48;77.83
69247;BME280;56358;56.328;43.992;2023-03-04T00:13:33;99002.75;;;-1.58;78.05
69247;BME280;56358;56.328;43.992;2023-03-04T00:15:34;99013.72;;;-1.49;77.88
69247;BME280;56358;56.328;43.992;2023-03-04T00:17:35;99011.41;;;-1.56;77.74
69247;BME280;56358;56.328;43.992;2023-03-04T00:19:35;99018.06;;;-1.48;77.51
69247;BME280;56358;56.328;43.992;2023-03-04T00:21:36;99036.81;;;-1.39;77.44
69247;BME280;56358;56.328;43.992;2023-03-04T00:23:37;99034.97;;;-1.37;77.24
69247;BME280;56358;56.328;43.992;2023-03-04T00:25:37;98943.13;;;-1.91;77.69
69247;BME280;56358;56.328;43.992;2023-03-04T00:27:38;99024.50;;;-1.38;77.53
69247;BME280;56358;56.328;43.992;2023-03-04T00:29:38;98954.63;;;-1.76;77.18
69247;BME280;56358;56.328;43.992;2023-03-04T00:31:39;99019.03;;;-1.33;77.19
69247;BME280;56358;56.328;43.992;2023-03-04T00:33:40;99027.84;;;-1.35;77.25
69247;BME280;56358;56.328;43.992;2023-03-04T00:35:42;99013.16;;;-1.39;77.32
69247;BME280;56358;56.328;43.992;2023-03-04T00:37:43;99022.66;;;-1.36;77.42
69247;BME280;56358;56.328;43.992;2023-03-04T00:39:43;99038.38;;;-1.35;77.40
69247;BME280;56358;56.328;43.992;2023-03-04T00:41:44;99024.38;;;-1.35;77.39
69247;BME280;56358;56.328;43.992;2023-03-04T00:43:45;99018.88;;;-1.30;77.15
69247;BME280;56358;56.328;43.992;2023-03-04T00:45:45;99013.59;;;-1.30;77.35
69247;BME280;56358;56.328;43.992;2023-03-04T00:47:46;99017.94;;;-1.29;77.05
69247;BME280;56358;56.328;43.992;2023-03-04T00:49:46;98920.88;;;-1.83;76.95
69247;BME280;56358;56.328;43.992;2023-03-04T00:51:47;98998.84;;;-1.33;76.96
69247;BME280;56358;56.328;43.992;2023-03-04T00:53:48;98972.41;;;-1.47;76.82
69247;BME280;56358;56.328;43.992;2023-03-04T00:55:49;99014.03;;;-1.22;76.58
69247;BME280;56358;56.328;43.992;2023-03-04T00:57:49;98923.25;;;-1.79;76.48
69247;BME280;56358;56.328;43.992;2023-03-04T00:59:50;99004.53;;;-1.25;76.67
69247;BME280;56358;56.328;43.992;2023-03-04T01:01:51;99019.66;;;-1.28;76.61
69247;BME280;56358;56.328;43.992;2023-03-04T01:03:51;98964.19;;;-1.57;76.79
69247;BME280;56358;56.328;43.992;2023-03-04T01:05:52;98937.00;;;-1.74;76.57
69247;BME280;56358;56.328;43.992;2023-03-04T01:07:53;99000.63;;;-1.33;76.76
69247;BME280;56358;56.328;43.992;2023-03-04T01:09:53;98979.47;;;-1.48;76.73
69247;BME280;56358;56.328;43.992;2023-03-04T01:11:54;98991.97;;;-1.36;76.87
69247;BME280;56358;56.328;43.992;2023-03-04T01:13:54;98998.91;;;-1.35;76.89
69247;BME280;56358;56.328;43.992;2023-03-04T01:15:55;98994.94;;;-1.42;76.82
69247;BME280;56358;56.328;43.992;2023-03-04T01:17:56;98929.03;;;-1.72;76.67
69247;BME280;56358;56.328;43.992;2023-03-04T01:19:57;98980.91;;;-1.42;76.50
69247;BME280;56358;56.328;43.992;2023-03-04T01:21:58;99004.78;;;-1.29;76.73
69247;BME280;56358;56.328;43.992;2023-03-04T01:23:58;98981.09;;;-1.45;76.86
69247;BME280;56358;56.328;43.992;2023-03-04T01:25:59;98913.53;;;-1.77;76.67
69247;BME280;56358;56.328;43.992;2023-03-04T01:28:00;98985.09;;;-1.38;76.59
69247;BME280;56358;56.328;43.992;2023-03-04T01:30:00;98967.94;;;-1.45;76.74
69247;BME280;56358;56.328;43.992;2023-03-04T01:32:01;98953.84;;;-1.60;76.88
69247;BME280;56358;56.328;43.992;2023-03-04T01:34:02;98896.31;;;-2.00;76.96
69247;BME280;56358;56.328;43.992;2023-03-04T01:36:03;98967.50;;;-1.54;76.97
69247;BME280;56358;56.328;43.992;2023-03-04T01:38:04;98974.38;;;-1.51;77.01
69247;BME280;56358;56.328;43.992;2023-03-04T01:40:05;98908.34;;;-1.96;76.86
69247;BME280;56358;56.328;43.992;2023-03-04T01:42:13;98815.00;;;-2.53;76.89
69247;BME280;56358;56.328;43.992;2023-03-04T01:44:17;98895.94;;;-2.10;77.09
69247;BME280;56358;56.328;43.992;2023-03-04T01:46:17;98977.03;;;-1.69;77.07
69247;BME280;56358;56.328;43.992;2023-03-04T01:48:25;98969.81;;;-1.65;77.36
69247;BME280;56358;56.328;43.992;2023-03-04T01:50:32;98979.25;;;-1.61;77.18
69247;BME280;56358;56.328;43.992;2023-03-04T01:52:33;98982.91;;;-1.63;77.13
69247;BME280;56358;56.328;43.992;2023-03-04T01:54:33;98970.78;;;-1.66;77.23
69247;BME280;56358;56.328;43.992;2023-03-04T01:56:37;98976.94;;;-1.67;77.25
69247;BME280;56358;56.328;43.992;2023-03-04T01:58:38;98961.81;;;-1.79;77.40
69247;BME280;56358;56.328;43.992;2023-03-04T02:00:38;98975.41;;;-1.71;77.37
69247;BME280;56358;56.328;43.992;2023-03-04T02:02:39;98980.97;;;-1.77;77.67
69247;BME280;56358;56.328;43.992;2023-03-04T02:04:41;98879.69;;;-2.34;77.72
69247;BME280;56358;56.328;43.992;2023-03-04T02:06:42;98972.56;;;-1.84;77.74
69247;BME280;56358;56.328;43.992;2023-03-04T02:08:43;98906.53;;;-2.11;77.86
69247;BME280;56358;56.328;43.992;2023-03-04T02:10:44;98975.41;;;-1.71;78.07
69247;BME280;56358;56.328;43.992;2023-03-04T02:13:05;98971.91;;;-1.72;77.66
69247;BME280;56358;56.328;43.992;2023-03-04T02:15:06;98969.16;;;-1.69;77.69
69247;BME280;56358;56.328;43.992;2023-03-04T02:17:11;98895.81;;;-2.24;77.62
69247;BME280;56358;56.328;43.992;2023-03-04T02:26:08;98959.66;;;-1.71;77.53
69247;BME280;56358;56.328;43.992;2023-03-04T02:28:10;98973.41;;;-1.66;77.52
69247;BME280;56358;56.328;43.992;2023-03-04T02:30:19;98965.56;;;-1.67;77.40
69247;BME280;56358;56.328;43.992;2023-03-04T02:32:20;98946.44;;;-1.70;77.57
69247;BME280;56358;56.328;43.992;2023-03-04T02:34:23;98865.00;;;-2.21;77.44
69247;BME280;56358;56.328;43.992;2023-03-04T02:36:25;98955.75;;;-1.64;77.43
69247;BME280;56358;56.328;43.992;2023-03-04T02:38:26;98929.44;;;-1.80;77.44
69247;BME280;56358;56.328;43.992;2023-03-04T02:40:32;98961.72;;;-1.60;77.36
69247;BME280;56358;56.328;43.992;2023-03-04T02:42:34;98954.53;;;-1.57;77.37
69247;BME280;56358;56.328;43.992;2023-03-04T02:44:36;98972.84;;;-1.55;77.21
69247;BME280;56358;56.328;43.992;2023-03-04T02:46:37;98957.06;;;-1.55;77.42
69247;BME280;56358;56.328;43.992;2023-03-04T02:48:38;98945.03;;;-1.59;77.01
69247;BME280;56358;56.328;43.992;2023-03-04T02:50:46;98950.88;;;-1.54;77.00
69247;BME280;56358;56.328;43.992;2023-03-04T02:52:47;98859.94;;;-2.08;77.12
69247;BME280;56358;56.328;43.992;2023-03-04T02:54:47;98946.47;;;-1.54;77.08
69247;BME280;56358;56.328;43.992;2023-03-04T02:56:50;98937.72;;;-1.54;76.94
69247;BME280;56358;56.328;43.992;2023-03-04T02:58:51;98913.97;;;-1.69;77.05
69247;BME280;56358;56.328;43.992;2023-03-04T03:00:51;98938.59;;;-1.54;76.83
69247;BME280;56358;56.328;43.992;2023-03-04T03:02:53;98938.69;;;-1.55;77.05
69247;BME280;56358;56.328;43.992;2023-03-04T03:04:53;98905.47;;;-1.74;76.82
69247;BME280;56358;56.328;43.992;2023-03-04T03:06:54;98932.63;;;-1.57;76.87
69247;BME280;56358;56.328;43.992;2023-03-04T03:08:55;98933.50;;;-1.57;77.07
69247;BME280;56358;56.328;43.992;2023-03-04T03:10:56;98921.28;;;-1.58;76.99
69247;BME280;56358;56.328;43.992;2023-03-04T03:12:56;98936.03;;;-1.55;77.12
69247;BME280;56358;56.328;43.992;2023-03-04T03:14:57;98929.69;;;-1.51;76.92
69247;BME280;56358;56.328;43.992;2023-03-04T03:16:57;98918.50;;;-1.55;77.02
69247;BME280;56358;56.328;43.992;2023-03-04T03:18:58;98889.88;;;-1.77;76.92
69247;BME280;56358;56.328;43.992;2023-03-04T03:20:59;98918.31;;;-1.52;76.96
69247;BME280;56358;56.328;43.992;2023-03-04T03:22:59;98919.84;;;-1.47;76.81
69247;BME280;56358;56.328;43.992;2023-03-04T03:25:00;98907.97;;;-1.55;76.68
69247;BME280;56358;56.328;43.992;2023-03-04T03:27:00;98819.63;;;-2.07;76.54
69247;BME280;56358;56.328;43.992;2023-03-04T03:29:01;98921.63;;;-1.48;76.58
69247;BME280;56358;56.328;43.992;2023-03-04T03:31:02;98909.34;;;-1.47;76.50
69247;BME280;56358;56.328;43.992;2023-03-04T03:33:02;98847.47;;;-1.87;76.52
69247;BME280;56358;56.328;43.992;2023-03-04T03:35:04;98902.03;;;-1.58;76.67
69247;BME280;56358;56.328;43.992;2023-03-04T03:37:04;98908.31;;;-1.45;76.57
69247;BME280;56358;56.328;43.992;2023-03-04T03:39:05;98898.59;;;-1.43;76.21
69247;BME280;56358;56.328;43.992;2023-03-04T03:41:05;98862.56;;;-1.74;76.27
69247;BME280;56358;56.328;43.992;2023-03-04T03:43:06;98920.63;;;-1.45;76.49
69247;BME280;56358;56.328;43.992;2023-03-04T03:45:07;98880.94;;;-1.57;76.36
69247;BME280;56358;56.328;43.992;2023-03-04T03:47:08;98867.28;;;-1.63;76.54
69247;BME280;56358;56.328;43.992;2023-03-04T03:49:08;98889.09;;;-1.45;76.24
69247;BME280;56358;56.328;43.992;2023-03-04T03:51:09;98895.88;;;-1.41;76.43
69247;BME280;56358;56.328;43.992;2023-03-04T03:53:10;98817.66;;;-1.86;76.16
69247;BME280;56358;56.328;43.992;2023-03-04T03:55:11;98714.00;;;-2.45;76.11
69247;BME280;56358;56.328;43.992;2023-03-04T03:57:13;98886.28;;;-1.42;76.26
69247;BME280;56358;56.328;43.992;2023-03-04T03:59:13;98871.09;;;-1.53;76.36
69247;BME280;56358;56.328;43.992;2023-03-04T04:01:14;98809.75;;;-1.86;76.25
69247;BME280;56358;56.328;43.992;2023-03-04T04:03:15;98867.53;;;-1.52;75.89
69247;BME280;56358;56.328;43.992;2023-03-04T04:05:16;98882.50;;;-1.37;76.04
69247;BME280;56358;56.328;43.992;2023-03-04T04:07:17;98889.19;;;-1.31;76.09
69247;BME280;56358;56.328;43.992;2023-03-04T04:09:18;98883.75;;;-1.28;76.03
69247;BME280;56358;56.328;43.992;2023-03-04T04:11:19;98872.31;;;-1.27;75.69
69247;BME280;56358;56.328;43.992;2023-03-04T04:13:19;98884.25;;;-1.21;75.70
69247;BME280;56358;56.328;43.992;2023-03-04T04:15:20;98866.03;;;-1.24;75.54
69247;BME280;56358;56.328;43.992;2023-03-04T04:17:20;98877.72;;;-1.14;75.30
69247;BME280;56358;56.328;43.992;2023-03-04T04:19:21;98881.22;;;-1.13;75.10
69247;BME280;56358;56.328;43.992;2023-03-04T04:21:23;98880.28;;;-1.12;75.05
69247;BME280;56358;56.328;43.992;2023-03-04T04:23:23;98878.50;;;-1.12;74.94
69247;BME280;56358;56.328;43.992;2023-03-04T04:25:24;98877.47;;;-1.09;74.65
69247;BME280;56358;56.328;43.992;2023-03-04T04:27:25;98877.47;;;-1.09;74.56
69247;BME280;56358;56.328;43.992;2023-03-04T04:29:25;98842.88;;;-1.33;74.61
69247;BME280;56358;56.328;43.992;2023-03-04T04:31:26;98892.25;;;-1.07;74.60
69247;BME280;56358;56.328;43.992;2023-03-04T04:33:26;98872.22;;;-1.09;74.46
69247;BME280;56358;56.328;43.992;2023-03-04T04:35:27;98874.53;;;-1.03;74.44
69247;BME280;56358;56.328;43.992;2023-03-04T04:37:28;98878.00;;;-1.03;74.27
69247;BME280;56358;56.328;43.992;2023-03-04T04:39:28;98855.16;;;-1.18;74.23
69247;BME280;56358;56.328;43.992;2023-03-04T04:41:34;98880.63;;;-1.03;74.34
69247;BME280;56358;56.328;43.992;2023-03-04T04:43:35;98886.47;;;-0.97;74.12
69247;BME280;56358;56.328;43.992;2023-03-04T04:45:36;98792.84;;;-1.48;74.10
69247;BME280;56358;56.328;43.992;2023-03-04T04:47:37;98885.47;;;-0.95;74.52
69247;BME280;56358;56.328;43.992;2023-03-04T04:49:37;98879.09;;;-0.91;74.26
69247;BME280;56358;56.328;43.992;2023-03-04T04:51:38;98877.88;;;-0.85;74.42
69247;BME280;56358;56.328;43.992;2023-03-04T04:53:39;98871.78;;;-0.86;73.95
69247;BME280;56358;56.328;43.992;2023-03-04T04:55:40;98879.16;;;-0.76;73.55
69247;BME280;56358;56.328;43.992;2023-03-04T04:57:40;98856.06;;;-0.87;73.59
69247;BME280;56358;56.328;43.992;2023-03-04T04:59:41;98811.81;;;-1.11;73.38
69247;BME280;56358;56.328;43.992;2023-03-04T05:01:42;98885.66;;;-0.68;73.35
69247;BME280;56358;56.328;43.992;2023-03-04T05:03:43;98875.97;;;-0.67;72.97
69247;BME280;56358;56.328;43.992;2023-03-04T05:05:44;98859.69;;;-0.74;72.85
69247;BME280;56358;56.328;43.992;2023-03-04T05:07:44;98880.31;;;-0.66;72.73
69247;BME280;56358;56.328;43.992;2023-03-04T05:09:45;98881.19;;;-0.65;72.65
69247;BME280;56358;56.328;43.992;2023-03-04T05:11:45;98842.66;;;-0.82;72.62
69247;BME280;56358;56.328;43.992;2023-03-04T05:13:46;98895.16;;;-0.65;72.39
69247;BME280;56358;56.328;43.992;2023-03-04T05:15:49;98869.13;;;-0.70;72.33
69247;BME280;56358;56.328;43.992;2023-03-04T05:17:50;98876.75;;;-0.65;72.47
69247;BME280;56358;56.328;43.992;2023-03-04T05:19:50;98868.94;;;-0.66;72.22
69247;BME280;56358;56.328;43.992;2023-03-04T05:21:51;98796.88;;;-1.10;72.42
69247;BME280;56358;56.328;43.992;2023-03-04T05:23:51;98871.38;;;-0.63;72.40
69247;BME280;56358;56.328;43.992;2023-03-04T05:25:52;98866.31;;;-0.66;72.17
69247;BME280;56358;56.328;43.992;2023-03-04T05:27:53;98808.66;;;-1.02;72.05
69247;BME280;56358;56.328;43.992;2023-03-04T05:29:54;98873.19;;;-0.64;72.18
69247;BME280;56358;56.328;43.992;2023-03-04T05:31:59;98861.72;;;-0.63;72.19
69247;BME280;56358;56.328;43.992;2023-03-04T05:33:59;98879.88;;;-0.58;72.10
69247;BME280;56358;56.328;43.992;2023-03-04T05:36:01;98840.25;;;-0.71;71.44
69247;BME280;56358;56.328;43.992;2023-03-04T05:38:03;98859.75;;;-0.59;71.41
69247;BME280;56358;56.328;43.992;2023-03-04T05:40:04;98885.72;;;-0.53;71.49
69247;BME280;56358;56.328;43.992;2023-03-04T05:42:05;98865.50;;;-0.53;71.50
69247;BME280;56358;56.328;43.992;2023-03-04T05:44:06;98852.44;;;-0.54;71.58
69247;BME280;56358;56.328;43.992;2023-03-04T05:46:07;98867.50;;;-0.42;71.36
69247;BME280;56358;56.328;43.992;2023-03-04T05:48:08;98841.06;;;-0.55;70.97
69247;BME280;56358;56.328;43.992;2023-03-04T05:50:09;98862.72;;;-0.35;71.00
69247;BME280;56358;56.328;43.992;2023-03-04T05:52:10;98828.94;;;-0.57;70.68
69247;BME280;56358;56.328;43.992;2023-03-04T05:54:10;98717.91;;;-1.25;70.58
69247;BME280;56358;56.328;43.992;2023-03-04T05:56:17;98867.34;;;-0.24;70.55
69247;BME280;56358;56.328;43.992;2023-03-04T05:58:18;98851.75;;;-0.27;69.88
69247;BME280;56358;56.328;43.992;2023-03-04T06:00:19;98863.59;;;-0.20;70.14
69247;BME280;56358;56.328;43.992;2023-03-04T06:02:20;98824.09;;;-0.35;70.08
69247;BME280;56358;56.328;43.992;2023-03-04T06:04:21;98854.78;;;-0.05;70.24
69247;BME280;56358;56.328;43.992;2023-03-04T06:06:21;98842.28;;;-0.01;69.80
69247;BME280;56358;56.328;43.992;2023-03-04T06:08:22;98757.41;;;-0.49;69.06
69247;BME280;56358;56.328;43.992;2023-03-04T06:10:22;98847.00;;;0.08;68.93
69247;BME280;56358;56.328;43.992;2023-03-04T06:12:23;98858.41;;;0.23;68.80
69247;BME280;56358;56.328;43.992;2023-03-04T06:14:24;98863.66;;;0.23;68.61
69247;BME280;56358;56.328;43.992;2023-03-04T06:16:25;98853.69;;;0.28;68.84
69247;BME280;56358;56.328;43.992;2023-03-04T06:18:26;98850.00;;;0.45;68.44
69247;BME280;56358;56.328;43.992;2023-03-04T06:20:27;98836.81;;;0.45;68.15
69247;BME280;56358;56.328;43.992;2023-03-04T06:22:28;98818.09;;;0.36;67.80
69247;BME280;56358;56.328;43.992;2023-03-04T06:24:29;98853.06;;;0.66;67.42
69247;BME280;56358;56.328;43.992;2023-03-04T06:26:30;98859.00;;;0.70;67.16
69247;BME280;56358;56.328;43.992;2023-03-04T06:28:30;98849.19;;;0.72;66.64
69247;BME280;56358;56.328;43.992;2023-03-04T06:30:31;98844.88;;;0.71;66.85
69247;BME280;56358;56.328;43.992;2023-03-04T06:32:32;98818.19;;;0.48;66.37
69247;BME280;56358;56.328;43.992;2023-03-04T06:34:32;98845.06;;;0.68;66.25
69247;BME280;56358;56.328;43.992;2023-03-04T06:36:33;98843.19;;;0.70;66.35
69247;BME280;56358;56.328;43.992;2023-03-04T06:38:34;98818.13;;;0.63;66.79
69247;BME280;56358;56.328;43.992;2023-03-04T06:40:35;98854.44;;;0.87;66.53
69247;BME280;56358;56.328;43.992;2023-03-04T06:42:35;98855.00;;;0.92;66.33
69247;BME280;56358;56.328;43.992;2023-03-04T06:44:36;98843.41;;;0.94;65.81
69247;BME280;56358;56.328;43.992;2023-03-04T06:46:37;98856.41;;;0.97;65.56
69247;BME280;56358;56.328;43.992;2023-03-04T06:48:37;98854.69;;;0.96;65.54
69247;BME280;56358;56.328;43.992;2023-03-04T06:50:39;98854.78;;;0.95;65.59
69247;BME280;56358;56.328;43.992;2023-03-04T06:52:40;98743.25;;;0.24;65.59
69247;BME280;56358;56.328;43.992;2023-03-04T06:54:40;98851.72;;;0.88;65.83
69247;BME280;56358;56.328;43.992;2023-03-04T06:56:41;98857.75;;;0.90;65.78
69247;BME280;56358;56.328;43.992;2023-03-04T06:58:43;98833.44;;;0.85;66.03
69247;BME280;56358;56.328;43.992;2023-03-04T07:00:43;98752.25;;;0.48;65.92
69247;BME280;56358;56.328;43.992;2023-03-04T07:02:44;98845.59;;;1.15;65.60
69247;BME280;56358;56.328;43.992;2023-03-04T07:04:45;98847.53;;;1.26;65.06
69247;BME280;56358;56.328;43.992;2023-03-04T07:06:46;98841.41;;;1.25;64.81
69247;BME280;56358;56.328;43.992;2023-03-04T07:08:46;98838.88;;;1.24;64.80
69247;BME280;56358;56.328;43.992;2023-03-04T07:10:48;98838.44;;;1.30;64.31
69247;BME280;56358;56.328;43.992;2023-03-04T07:12:48;98841.31;;;1.27;64.28
69247;BME280;56358;56.328;43.992;2023-03-04T07:14:49;98836.69;;;1.30;63.98
69247;BME280;56358;56.328;43.992;2023-03-04T07:16:49;98770.47;;;0.93;64.04
69247;BME280;56358;56.328;43.992;2023-03-04T07:18:50;98835.97;;;1.41;63.96
69247;BME280;56358;56.328;43.992;2023-03-04T07:20:51;98825.06;;;1.46;63.98
69247;BME280;56358;56.328;43.992;2023-03-04T07:22:52;98820.56;;;1.48;63.64
69247;BME280;56358;56.328;43.992;2023-03-04T07:24:53;98802.91;;;1.48;63.94
69247;BME280;56358;56.328;43.992;2023-03-04T07:26:54;98811.59;;;1.63;63.43
69247;BME280;56358;56.328;43.992;2023-03-04T07:28:54;98812.34;;;1.65;63.07
69247;BME280;56358;56.328;43.992;2023-03-04T07:31:10;98792.88;;;1.54;62.40
69247;BME280;56358;56.328;43.992;2023-03-04T07:33:12;98753.66;;;1.34;62.55
69247;BME280;56358;56.328;43.992;2023-03-04T07:35:13;98791.84;;;1.69;62.95
69247;BME280;56358;56.328;43.992;2023-03-04T07:37:14;98805.25;;;1.79;62.36
69247;BME280;56358;56.328;43.992;2023-03-04T07:39:14;98658.16;;;0.89;62.41
69247;BME280;56358;56.328;43.992;2023-03-04T07:41:16;98784.47;;;1.74;62.66
69247;BME280;56358;56.328;43.992;2023-03-04T07:43:17;98793.53;;;1.83;62.71
69247;BME280;56358;56.328;43.992;2023-03-04T07:45:17;98800.94;;;1.91;62.34
69247;BME280;56358;56.328;43.992;2023-03-04T07:47:18;98784.97;;;1.92;62.38
69247;BME280;56358;56.328;43.992;2023-03-04T07:49:19;98786.03;;;2.03;63.27
69247;BME280;56358;56.328;43.992;2023-03-04T07:51:22;98792.97;;;2.16;62.12
69247;BME280;56358;56.328;43.992;2023-03-04T07:53:23;98756.94;;;2.03;61.20
69247;BME280;56358;56.328;43.992;2023-03-04T07:55:24;98724.41;;;1.89;61.14
69247;BME280;56358;56.328;43.992;2023-03-04T07:57:24;98791.16;;;2.30;59.77
69247;BME280;56358;56.328;43.992;2023-03-04T07:59:25;98783.47;;;2.27;60.13
69247;BME280;56358;56.328;43.992;2023-03-04T08:01:28;98792.53;;;2.35;60.11
69247;BME280;56358;56.328;43.992;2023-03-04T08:03:29;98784.19;;;2.29;59.89
69247;BME280;56358;56.328;43.992;2023-03-04T08:05:30;98781.69;;;2.14;59.50
69247;BME280;56358;56.328;43.992;2023-03-04T08:07:31;98722.94;;;1.72;59.56
69247;BME280;56358;56.328;43.992;2023-03-04T08:09:32;98784.88;;;2.07;59.70
69247;BME280;56358;56.328;43.992;2023-03-04T08:11:35;98780.84;;;2.01;60.17
69247;BME280;56358;56.328;43.992;2023-03-04T08:13:36;98784.56;;;1.98;59.92
69247;BME280;56358;56.328;43.992;2023-03-04T08:15:40;98768.16;;;1.80;59.86
69247;BME280;56358;56.328;43.992;2023-03-04T08:17:41;98713.31;;;1.45;59.95
69247;BME280;56358;56.328;43.992;2023-03-04T08:19:42;98752.09;;;1.71;60.29
69247;BME280;56358;56.328;43.992;2023-03-04T08:21:43;98705.50;;;1.44;60.26
69247;BME280;56358;56.328;43.992;2023-03-04T08:23:44;98719.66;;;1.43;60.03
69247;BME280;56358;56.328;43.992;2023-03-04T08:25:45;98780.84;;;1.75;60.21
69247;BME280;56358;56.328;43.992;2023-03-04T08:27:46;98684.59;;;1.28;60.35
69247;BME280;56358;56.328;43.992;2023-03-04T08:29:47;98772.91;;;1.75;59.84
69247;BME280;56358;56.328;43.992;2023-03-04T08:31:48;98767.84;;;1.72;59.88
69247;BME280;56358;56.328;43.992;2023-03-04T08:33:49;98765.53;;;1.67;59.95
69247;BME280;56358;56.328;43.992;2023-03-04T08:35:51;98756.97;;;1.64;59.64
69247;BME280;56358;56.328;43.992;2023-03-04T08:37:52;98767.84;;;1.72;59.34
69247;BME280;56358;56.328;43.992;2023-03-04T08:39:53;98758.56;;;1.66;59.21
69247;BME280;56358;56.328;43.992;2023-03-04T08:41:53;98755.47;;;1.86;59.18
69247;BME280;56358;56.328;43.992;2023-03-04T08:43:54;98762.94;;;2.17;58.19
69247;BME280;56358;56.328;43.992;2023-03-04T08:45:55;98758.09;;;2.61;57.72
69247;BME280;56358;56.328;43.992;2023-03-04T08:47:55;98765.91;;;3.11;56.94
69247;BME280;56358;56.328;43.992;2023-03-04T08:49:56;98757.47;;;3.42;55.57
69247;BME280;56358;56.328;43.992;2023-03-04T08:51:57;98726.91;;;3.72;54.03
69247;BME280;56358;56.328;43.992;2023-03-04T08:53:58;98755.84;;;4.09;53.75
69247;BME280;56358;56.328;43.992;2023-03-04T08:55:59;98671.50;;;3.91;53.00
69247;BME280;56358;56.328;43.992;2023-03-04T08:57:59;98767.81;;;4.69;52.97
69247;BME280;56358;56.328;43.992;2023-03-04T09:00:00;98755.78;;;4.98;50.78
69247;BME280;56358;56.328;43.992;2023-03-04T09:02:00;98753.72;;;5.01;50.05
69247;BME280;56358;56.328;43.992;2023-03-04T09:04:01;98751.56;;;5.28;50.16
69247;BME280;56358;56.328;43.992;2023-03-04T09:06:03;98756.06;;;5.48;49.66
69247;BME280;56358;56.328;43.992;2023-03-04T09:08:04;98733.09;;;5.47;48.11
69247;BME280;56358;56.328;43.992;2023-03-04T09:10:05;98673.66;;;5.48;48.16
69247;BME280;56358;56.328;43.992;2023-03-04T09:12:06;98706.13;;;6.04;47.00
69247;BME280;56358;56.328;43.992;2023-03-04T09:14:07;98739.63;;;6.57;46.67
69247;BME280;56358;56.328;43.992;2023-03-04T09:16:10;98685.03;;;6.22;45.64
69247;BME280;56358;56.328;43.992;2023-03-04T09:18:11;98737.25;;;6.64;45.38
69247;BME280;56358;56.328;43.992;2023-03-04T09:20:12;98736.72;;;6.90;45.97
69247;BME280;56358;56.328;43.992;2023-03-04T09:22:13;98735.19;;;7.16;45.51
69247;BME280;56358;56.328;43.992;2023-03-04T09:24:14;98701.25;;;6.99;44.50
69247;BME280;56358;56.328;43.992;2023-03-04T09:26:15;98734.91;;;7.00;44.92
69247;BME280;56358;56.328;43.992;2023-03-04T09:28:17;98732.94;;;6.82;44.57
69247;BME280;56358;56.328;43.992;2023-03-04T09:30:18;98716.78;;;6.64;44.17
69247;BME280;56358;56.328;43.992;2023-03-04T09:32:19;98739.63;;;6.67;43.81
69247;BME280;56358;56.328;43.992;2023-03-04T09:34:19;98715.94;;;6.64;44.52
69247;BME280;56358;56.328;43.992;2023-03-04T09:36:21;98728.72;;;6.70;43.88
69247;BME280;56358;56.328;43.992;2023-03-04T09:38:21;98665.69;;;6.10;44.62
69247;BME280;56358;56.328;43.992;2023-03-04T09:40:28;98732.34;;;6.18;45.14
69247;BME280;56358;56.328;43.992;2023-03-04T09:42:42;98743.56;;;5.91;45.34
69247;BME280;56358;56.328;43.992;2023-03-04T09:44:45;98703.66;;;5.39;46.33
69247;BME280;56358;56.328;43.992;2023-03-04T09:46:46;98725.50;;;5.22;47.29
69247;BME280;56358;56.328;43.992;2023-03-04T09:48:51;98727.91;;;5.25;47.36
69247;BME280;56358;56.328;43.992;2023-03-04T09:55:23;98735.47;;;4.76;47.91
69247;BME280;56358;56.328;43.992;2023-03-04T09:59:44;98723.00;;;4.44;48.82
69247;BME280;56358;56.328;43.992;2023-03-04T10:01:59;98703.00;;;4.28;49.16
69247;BME280;56358;56.328;43.992;2023-03-04T10:04:13;98716.41;;;4.27;49.81
69247;BME280;56358;56.328;43.992;2023-03-04T10:06:19;98723.66;;;4.13;50.33
69247;BME280;56358;56.328;43.992;2023-03-04T10:08:30;98642.41;;;3.90;50.26
69247;BME280;56358;56.328;43.992;2023-03-04T10:10:36;98716.50;;;4.36;49.83
69247;BME280;56358;56.328;43.992;2023-03-04T10:12:41;98713.34;;;4.43;49.82
69247;BME280;56358;56.328;43.992;2023-03-04T10:14:48;98711.78;;;4.51;49.84
69247;BME280;56358;56.328;43.992;2023-03-04T10:21:35;98711.59;;;4.09;49.93
69247;BME280;56358;56.328;43.992;2023-03-04T10:23:38;98718.47;;;4.00;50.69
69247;BME280;56358;56.328;43.992;2023-03-04T10:25:43;98714.63;;;3.93;51.17
69247;BME280;56358;56.328;43.992;2023-03-04T10:27:58;98697.75;;;3.83;51.63
69247;BME280;56358;56.328;43.992;2023-03-04T10:30:02;98622.09;;;3.45;51.63
69247;BME280;56358;56.328;43.992;2023-03-04T10:32:04;98600.53;;;3.27;51.71
69247;BME280;56358;56.328;43.992;2023-03-04T10:34:05;98704.75;;;3.73;51.94
69247;BME280;56358;56.328;43.992;2023-03-04T10:38:31;98639.66;;;3.34;52.20
69247;BME280;56358;56.328;43.992;2023-03-04T10:40:37;98704.50;;;3.64;53.07
69247;BME280;56358;56.328;43.992;2023-03-04T10:42:37;98701.84;;;3.64;52.92
69247;BME280;56358;56.328;43.992;2023-03-04T10:44:51;98705.81;;;3.59;51.90
69247;BME280;56358;56.328;43.992;2023-03-04T10:46:54;98692.56;;;3.47;52.47
69247;BME280;56358;56.328;43.992;2023-03-04T10:48:55;98694.81;;;3.41;52.66
69247;BME280;56358;56.328;43.992;2023-03-04T10:51:16;98702.28;;;3.35;52.47
69247;BME280;56358;56.328;43.992;2023-03-04T10:53:30;98694.09;;;3.27;52.43
69247;BME280;56358;56.328;43.992;2023-03-04T10:55:43;98697.06;;;3.11;52.95
69247;BME280;56358;56.328;43.992;2023-03-04T10:57:47;98708.53;;;3.23;52.94
69247;BME280;56358;56.328;43.992;2023-03-04T11:00:00;98615.63;;;2.79;53.28
69247;BME280;56358;56.328;43.992;2023-03-04T11:04:22;98699.72;;;3.23;53.48